Time;durP1;ratioP1;P1;durP2;ratioP2;P2;SDS_P1;SDS_P2;PMS_P1;PMS_P2;Temp;Humidity;BMP_temperature;BMP_pressure;BME280_temperature;BME280_humidity;BME280_pressure;Samples;Min_cycle;Max_cycle;Signal;HPM_P1;HPM_P2
2022/12/03 00:00:21;;;;;;;;;;;;;;;9.16;65.58;99702.44;5074251;28;20014;-74
2022/12/03 00:02:46;;;;;;;;;;;;;;;9.16;65.54;99702.44;5040202;28;20298;-73
2022/12/03 00:05:12;;;;;;;;;;;;;;;9.15;65.36;99704.19;5056162;28;20386;-73
2022/12/03 00:07:37;;;;;;;;;;;;;;;9.16;65.38;99705.88;5074165;28;19920;-74
2022/12/03 00:10:03;;;;;;;;;;;;;;;9.15;65.36;99709.41;5074408;28;19970;-73
2022/12/03 00:12:28;;;;;;;;;;;;;;;9.16;65.48;99705.06;5074367;28;19939;-73
2022/12/03 00:14:53;;;;;;;;;;;;;;;9.17;65.38;99706.72;5074590;28;19917;-73
2022/12/03 00:17:19;;;;;;;;;;;;;;;9.17;65.33;99709.31;5056287;28;19916;-74
2022/12/03 00:19:44;;;;;;;;;;;;;;;9.18;65.34;99705.81;5038912;28;19927;-73
2022/12/03 00:22:09;;;;;;;;;;;;;;;9.17;65.33;99704.13;5073192;28;19927;-73
2022/12/03 00:24:35;;;;;;;;;;;;;;;9.18;65.25;99698.00;5040076;28;19994;-73
2022/12/03 00:27:00;;;;;;;;;;;;;;;9.16;65.19;99705.88;5073852;28;20349;-73
2022/12/03 00:29:25;;;;;;;;;;;;;;;9.17;65.26;99704.97;5055671;28;20007;-73
2022/12/03 00:31:50;;;;;;;;;;;;;;;9.18;65.14;99708.41;5056113;28;19940;-73
2022/12/03 00:34:16;;;;;;;;;;;;;;;9.19;65.15;99712.72;5056333;28;19920;-73
2022/12/03 00:36:41;;;;;;;;;;;;;;;9.19;65.11;99717.91;5055911;28;19916;-74
2022/12/03 00:39:06;;;;;;;;;;;;;;;9.19;65.08;99715.31;5055993;28;20007;-75
2022/12/03 00:41:32;;;;;;;;;;;;;;;9.19;65.01;99717.91;5039267;28;19921;-74
2022/12/03 00:43:57;;;;;;;;;;;;;;;9.20;64.73;99717.84;5055718;28;19922;-74
2022/12/03 00:46:23;;;;;;;;;;;;;;;9.19;64.91;99723.97;5073892;28;19924;-74
2022/12/03 00:48:48;;;;;;;;;;;;;;;9.21;64.87;99726.47;5054857;28;20026;-73
2022/12/03 00:51:13;;;;;;;;;;;;;;;9.21;64.78;99729.09;5055853;28;20340;-73
2022/12/03 00:53:39;;;;;;;;;;;;;;;9.20;64.75;99737.81;5055502;28;19917;-73
2022/12/03 00:56:04;;;;;;;;;;;;;;;9.19;64.65;99731.78;5055504;28;19923;-73
2022/12/03 00:58:30;;;;;;;;;;;;;;;9.19;64.72;99733.56;5055561;28;19950;-73
2022/12/03 01:00:55;;;;;;;;;;;;;;;9.18;64.69;99735.28;5038510;28;19929;-73
2022/12/03 01:03:20;;;;;;;;;;;;;;;9.19;64.80;99734.38;5055370;28;20356;-73
2022/12/03 01:05:45;;;;;;;;;;;;;;;9.20;64.68;99741.28;5055350;28;20003;-73
2022/12/03 01:08:11;;;;;;;;;;;;;;;9.20;64.68;99735.22;5038644;28;19923;-73
2022/12/03 01:10:36;;;;;;;;;;;;;;;9.20;64.65;99745.63;5073187;28;19917;-73
2022/12/03 01:13:01;;;;;;;;;;;;;;;9.20;64.65;99743.03;5054975;28;20054;-75
2022/12/03 01:15:27;;;;;;;;;;;;;;;9.20;64.68;99749.09;5054730;28;19917;-73
2022/12/03 01:17:53;;;;;;;;;;;;;;;9.20;64.67;99745.63;5055379;28;20322;-73
2022/12/03 01:20:18;;;;;;;;;;;;;;;9.20;64.82;99754.31;5072947;28;19921;-74
2022/12/03 01:22:43;;;;;;;;;;;;;;;9.20;64.59;99751.69;5038843;28;19923;-74
2022/12/03 01:25:09;;;;;;;;;;;;;;;9.21;64.62;99750.75;5055028;28;19912;-74
2022/12/03 01:27:34;;;;;;;;;;;;;;;9.21;64.64;99753.38;5055192;28;20418;-74
2022/12/03 01:29:59;;;;;;;;;;;;;;;9.21;64.69;99752.53;5055097;28;20339;-74
2022/12/03 01:32:25;;;;;;;;;;;;;;;9.20;64.86;99751.69;5054975;28;19978;-74
2022/12/03 01:34:51;;;;;;;;;;;;;;;9.22;64.62;99746.41;5038199;28;19966;-74
2022/12/03 01:37:16;;;;;;;;;;;;;;;9.21;64.60;99752.53;5054935;28;20435;-74
2022/12/03 01:39:42;;;;;;;;;;;;;;;9.20;64.74;99753.44;5055288;28;20022;-74
2022/12/03 01:42:07;;;;;;;;;;;;;;;9.21;64.69;99762.97;5055215;28;19939;-74
2022/12/03 01:44:33;;;;;;;;;;;;;;;9.22;64.64;99757.66;5054920;28;20390;-74
2022/12/03 01:47:00;;;;;;;;;;;;;;;9.22;64.61;99747.25;5038198;28;20013;-74
2022/12/03 01:49:26;;;;;;;;;;;;;;;9.22;64.62;99751.63;5037806;28;19924;-74
2022/12/03 01:51:51;;;;;;;;;;;;;;;9.22;64.63;99751.63;5054692;28;19916;-74
2022/12/03 01:54:18;;;;;;;;;;;;;;;9.23;64.64;99753.28;5055224;28;19923;-74
2022/12/03 01:56:43;;;;;;;;;;;;;;;9.23;64.61;99751.53;5072991;28;19966;-74
2022/12/03 01:59:11;;;;;;;;;;;;;;;9.24;64.62;99758.41;5038230;28;19921;-74
2022/12/03 02:01:37;;;;;;;;;;;;;;;9.23;64.60;99755.88;5038027;28;19925;-73
2022/12/03 02:04:02;;;;;;;;;;;;;;;9.26;64.68;99762.72;5054490;28;19920;-74
2022/12/03 02:06:27;;;;;;;;;;;;;;;9.24;64.58;99752.38;5037736;28;19921;-74
2022/12/03 02:08:58;;;;;;;;;;;;;;;9.26;64.61;99757.50;5038052;28;20383;-74
2022/12/03 02:11:30;;;;;;;;;;;;;;;9.24;64.69;99750.59;5072522;28;19959;-74
2022/12/03 02:13:58;;;;;;;;;;;;;;;9.26;64.71;99754.88;5054793;28;19943;-74
2022/12/03 02:16:23;;;;;;;;;;;;;;;9.25;64.64;99754.06;5053814;28;20352;-74
2022/12/03 02:18:48;;;;;;;;;;;;;;;9.26;64.57;99757.50;5037521;28;19917;-74
2022/12/03 02:21:24;;;;;;;;;;;;;;;9.24;64.64;99768.81;5072404;28;19981;-74
2022/12/03 02:23:55;;;;;;;;;;;;;;;9.24;64.68;99771.44;5054964;28;20054;-73
2022/12/03 02:26:20;;;;;;;;;;;;;;;9.24;64.69;99771.44;5072461;28;19924;-73
2022/12/03 02:28:46;;;;;;;;;;;;;;;9.24;64.61;99779.25;5054469;28;19917;-73
2022/12/03 02:31:11;;;;;;;;;;;;;;;9.26;64.86;99767.91;5072330;28;19916;-73
2022/12/03 02:33:36;;;;;;;;;;;;;;;9.26;64.58;99773.13;5072640;28;19948;-73
2022/12/03 02:36:02;;;;;;;;;;;;;;;9.26;64.59;99763.53;5054160;28;19924;-75
2022/12/03 02:38:27;;;;;;;;;;;;;;;9.28;64.60;99760.84;5054724;28;20298;-74
2022/12/03 02:40:53;;;;;;;;;;;;;;;9.26;64.46;99773.97;5054323;28;19917;-74
2022/12/03 02:43:18;;;;;;;;;;;;;;;9.26;64.52;99778.34;5054401;28;19974;-74
2022/12/03 02:45:45;;;;;;;;;;;;;;;9.26;64.53;99779.16;5074808;28;19917;-74
2022/12/03 02:48:11;;;;;;;;;;;;;;;9.26;64.71;99770.53;5058629;28;20268;-74
2022/12/03 02:50:38;;;;;;;;;;;;;;;9.26;64.59;99771.34;5058034;28;19916;-74
2022/12/03 02:53:04;;;;;;;;;;;;;;;9.27;64.57;99775.66;5041309;28;19920;-74
2022/12/03 02:55:30;;;;;;;;;;;;;;;9.26;64.60;99762.72;5040849;28;19967;-74
2022/12/03 02:57:55;;;;;;;;;;;;;;;9.28;64.48;99763.47;5057986;28;19921;-74
2022/12/03 03:00:21;;;;;;;;;;;;;;;9.27;64.50;99759.19;5041128;28;20014;-74
2022/12/03 03:02:47;;;;;;;;;;;;;;;9.27;64.44;99764.41;5057989;28;19916;-74
2022/12/03 03:05:12;;;;;;;;;;;;;;;9.27;64.43;99764.41;5057848;28;20276;-74
2022/12/03 03:07:37;;;;;;;;;;;;;;;9.24;64.45;99768.81;5057694;28;19960;-74
2022/12/03 03:10:03;;;;;;;;;;;;;;;9.24;64.43;99763.63;5041015;28;20011;-74
2022/12/03 03:12:29;;;;;;;;;;;;;;;9.24;64.47;99768.81;5040747;28;19923;-74
2022/12/03 03:14:54;;;;;;;;;;;;;;;9.23;64.58;99767.16;5075411;28;19916;-74
2022/12/03 03:17:19;;;;;;;;;;;;;;;9.24;64.39;99761.00;5057899;28;20353;-73
2022/12/03 03:19:44;;;;;;;;;;;;;;;9.26;64.50;99771.34;5057213;28;19959;-73
2022/12/03 03:22:10;;;;;;;;;;;;;;;9.26;64.71;99763.53;5057759;28;20011;-73
2022/12/03 03:24:35;;;;;;;;;;;;;;;9.26;64.52;99760.09;5057480;28;19927;-73
2022/12/03 03:27:00;;;;;;;;;;;;;;;9.26;64.57;99760.94;5057419;28;19970;-72
2022/12/03 03:29:26;;;;;;;;;;;;;;;9.27;64.44;99767.00;5057267;28;19917;-73
2022/12/03 03:31:51;;;;;;;;;;;;;;;9.28;64.33;99776.47;5057435;28;19974;-73
2022/12/03 03:34:16;;;;;;;;;;;;;;;9.27;64.45;99774.81;5058004;28;19951;-74
2022/12/03 03:36:42;;;;;;;;;;;;;;;9.26;64.45;99779.16;5057227;28;19923;-73
2022/12/03 03:39:08;;;;;;;;;;;;;;;9.26;64.55;99778.34;5056828;28;19974;-73
2022/12/03 03:41:33;;;;;;;;;;;;;;;9.25;64.52;99777.50;5057021;28;19916;-73
2022/12/03 03:43:59;;;;;;;;;;;;;;;9.28;64.56;99779.91;5057348;28;20020;-74
2022/12/03 03:46:24;;;;;;;;;;;;;;;9.28;64.48;99784.31;5057785;28;20428;-73
2022/12/03 03:48:49;;;;;;;;;;;;;;;9.28;64.42;99790.34;5040163;28;19917;-73
2022/12/03 03:51:15;;;;;;;;;;;;;;;9.26;64.44;99792.19;5057017;28;19935;-73
2022/12/03 03:53:41;;;;;;;;;;;;;;;9.29;64.36;99791.19;5074754;28;19923;-73
2022/12/03 03:56:07;;;;;;;;;;;;;;;9.28;64.43;99789.50;5038637;28;19920;-73
2022/12/03 03:58:32;;;;;;;;;;;;;;;9.28;64.49;99800.75;5056908;28;19920;-73
2022/12/03 04:00:57;;;;;;;;;;;;;;;9.28;64.47;99789.50;5074502;28;19925;-73
2022/12/03 04:03:23;;;;;;;;;;;;;;;9.28;64.45;99792.94;5057024;28;19923;-73
2022/12/03 04:05:49;;;;;;;;;;;;;;;9.27;64.57;99801.72;5056469;28;19917;-73
2022/12/03 04:08:15;;;;;;;;;;;;;;;9.27;64.53;99798.28;5074405;28;19916;-73
2022/12/03 04:13:24;;;;;;;;;;;;;;;9.27;64.62;99795.66;5074431;28;20026;-73
2022/12/03 04:15:49;;;;;;;;;;;;;;;9.27;64.52;99800.88;5056461;28;20387;-75
2022/12/03 04:23:42;;;;;;;;;;;;;;;9.28;64.57;99798.16;5059075;28;19970;-73
2022/12/03 04:28:51;;;;;;;;;;;;;;;9.31;64.38;99799.78;5074046;28;20398;-74
2022/12/03 04:36:45;;;;;;;;;;;;;;;9.27;64.67;99800.88;5073929;28;20295;-73
2022/12/03 04:39:10;;;;;;;;;;;;;;;9.28;64.59;99803.38;5056189;28;19917;-74
2022/12/03 04:41:35;;;;;;;;;;;;;;;9.26;64.63;99807.84;5056524;28;20444;-74
2022/12/03 04:46:45;;;;;;;;;;;;;;;9.26;64.69;99810.44;5073734;28;19923;-74
2022/12/03 04:49:10;;;;;;;;;;;;;;;9.25;64.73;99803.56;5055882;28;19963;-74
2022/12/03 04:51:35;;;;;;;;;;;;;;;9.28;64.74;99807.75;5055166;28;20033;-74
2022/12/03 04:54:01;;;;;;;;;;;;;;;9.29;64.62;99801.63;5055645;28;20393;-74
2022/12/03 04:56:26;;;;;;;;;;;;;;;9.28;64.74;99807.75;5039006;28;19922;-74
2022/12/03 04:58:51;;;;;;;;;;;;;;;9.28;64.55;99800.75;5055552;28;19979;-73
2022/12/03 05:01:17;;;;;;;;;;;;;;;9.29;64.56;99809.44;5055615;28;20295;-73
2022/12/03 05:03:42;;;;;;;;;;;;;;;9.29;64.69;99809.44;5073426;28;19923;-73
2022/12/03 05:06:07;;;;;;;;;;;;;;;9.28;64.74;99807.75;5055914;28;19963;-74
2022/12/03 05:08:33;;;;;;;;;;;;;;;9.28;64.72;99812.97;5055493;28;19922;-74
2022/12/03 05:10:58;;;;;;;;;;;;;;;9.28;64.69;99824.22;5073060;28;20375;-73
2022/12/03 05:13:23;;;;;;;;;;;;;;;9.28;64.66;99820.78;5055384;28;19917;-74
2022/12/03 05:15:48;;;;;;;;;;;;;;;9.29;64.45;99820.69;5073196;28;19916;-73
2022/12/03 05:18:14;;;;;;;;;;;;;;;9.29;64.67;99825.06;5055834;28;19916;-74
2022/12/03 05:20:42;;;;;;;;;;;;;;;9.27;64.54;99817.34;5038230;28;20319;-74
2022/12/03 05:23:08;;;;;;;;;;;;;;;9.27;64.63;99827.75;5055988;28;19917;-73
2022/12/03 05:25:33;;;;;;;;;;;;;;;9.28;64.59;99826.81;5072784;28;19917;-73
2022/12/03 05:27:58;;;;;;;;;;;;;;;9.27;64.58;99816.50;5073371;28;19917;-76
2022/12/03 05:30:24;;;;;;;;;;;;;;;9.26;64.70;99823.47;5038274;28;20338;-75
2022/12/03 05:32:49;;;;;;;;;;;;;;;9.27;64.68;99834.75;5055006;28;19917;-74
2022/12/03 05:35:14;;;;;;;;;;;;;;;9.26;64.68;99836.50;5072725;28;20288;-74
2022/12/03 05:37:40;;;;;;;;;;;;;;;9.27;64.46;99832.13;5055145;28;19916;-73
2022/12/03 05:40:05;;;;;;;;;;;;;;;9.27;64.59;99832.97;5054725;28;19977;-74
2022/12/03 05:43:16;;;;;;;;;;;;;;;9.28;64.46;99825.97;5072449;28;19939;-75
2022/12/03 05:45:17;;;;;;;;;;;;;;;9.29;64.66;99831.13;5061981;28;20333;-76
2022/12/03 05:47:42;;;;;;;;;;;;;;;9.28;64.48;99834.63;5054773;28;19917;-74
2022/12/03 05:50:08;;;;;;;;;;;;;;;9.27;64.66;99825.16;5024336;28;19921;-74
2022/12/03 05:52:33;;;;;;;;;;;;;;;9.26;64.59;99833.06;5052485;28;19924;-74
2022/12/03 05:54:58;;;;;;;;;;;;;;;9.27;64.63;99835.56;5068189;28;20053;-74
2022/12/03 05:57:24;;;;;;;;;;;;;;;9.27;64.66;99838.19;5068562;28;20399;-73
2022/12/03 05:59:49;;;;;;;;;;;;;;;9.26;64.70;99840.88;5068461;28;20375;-73
2022/12/03 06:02:14;;;;;;;;;;;;;;;9.25;64.85;99842.66;5068401;28;19923;-73
2022/12/03 06:04:39;;;;;;;;;;;;;;;9.25;64.78;99845.25;5035060;28;19916;-73
2022/12/03 06:07:05;;;;;;;;;;;;;;;9.24;64.82;99859.19;5034603;28;19920;-72
2022/12/03 06:09:30;;;;;;;;;;;;;;;9.23;64.76;99860.09;5052588;28;20367;-74
2022/12/03 06:11:55;;;;;;;;;;;;;;;9.23;64.78;99868.78;5052465;28;19928;-74
2022/12/03 06:14:21;;;;;;;;;;;;;;;9.22;64.79;99868.84;5051489;28;19951;-74
2022/12/03 06:16:46;;;;;;;;;;;;;;;9.22;64.70;99869.69;5051217;28;20007;-73
2022/12/03 06:19:11;;;;;;;;;;;;;;;9.22;64.73;99867.09;5068423;28;19928;-73
2022/12/03 06:21:36;;;;;;;;;;;;;;;9.22;64.77;99863.66;5072023;28;19917;-73
2022/12/03 06:24:02;;;;;;;;;;;;;;;9.22;64.76;99871.47;5072201;28;20326;-73
2022/12/03 06:26:28;;;;;;;;;;;;;;;9.23;64.67;99874.00;5070936;28;20016;-73
2022/12/03 06:28:54;;;;;;;;;;;;;;;9.23;64.71;99884.41;5036458;28;20410;-78
2022/12/03 06:31:19;;;;;;;;;;;;;;;9.24;64.36;99886.06;5055510;28;19916;-76
2022/12/03 06:33:44;;;;;;;;;;;;;;;9.23;64.57;99875.72;5021021;28;19923;-71
2022/12/03 06:36:10;;;;;;;;;;;;;;;9.23;64.58;99879.19;5055492;28;19923;-72
2022/12/03 06:38:35;;;;;;;;;;;;;;;9.22;64.55;99874.91;5020005;28;19932;-72
2022/12/03 06:41:00;;;;;;;;;;;;;;;9.24;64.58;99872.22;5037468;28;19924;-76
2022/12/03 06:43:26;;;;;;;;;;;;;;;9.26;64.41;99877.34;5037189;28;20330;-73
2022/12/03 06:45:51;;;;;;;;;;;;;;;9.26;64.60;99879.94;5055488;28;20296;-73
2022/12/03 06:48:17;;;;;;;;;;;;;;;9.26;64.36;99879.94;5037335;28;20325;-70
2022/12/03 06:50:42;;;;;;;;;;;;;;;9.26;64.49;99890.38;5055121;28;19924;-72
2022/12/03 06:53:07;;;;;;;;;;;;;;;9.26;64.32;99888.59;5054152;28;19920;-71
2022/12/03 06:55:32;;;;;;;;;;;;;;;9.27;64.34;99879.03;5037052;28;19916;-71
2022/12/03 06:57:58;;;;;;;;;;;;;;;9.27;64.23;99890.28;5037049;28;20319;-71
2022/12/03 07:00:24;;;;;;;;;;;;;;;9.54;72.34;99893.19;5054072;28;19978;-73
2022/12/03 07:02:49;;;;;;;;;;;;;;;9.66;71.87;99896.94;5037093;28;19921;-71
2022/12/03 07:05:14;;;;;;;;;;;;;;;9.67;69.55;99887.31;5036648;28;20005;-70
2022/12/03 07:07:40;;;;;;;;;;;;;;;9.65;68.49;99899.63;5053591;28;20418;-72
2022/12/03 07:10:05;;;;;;;;;;;;;;;9.63;67.90;99896.22;5053488;28;19928;-71
2022/12/03 07:12:31;;;;;;;;;;;;;;;9.63;67.32;99904.03;5054398;28;19917;-71
2022/12/03 07:14:57;;;;;;;;;;;;;;;9.63;68.45;99896.22;5054981;28;19939;-73
2022/12/03 07:17:22;;;;;;;;;;;;;;;9.66;68.39;99901.28;5036725;28;20410;-72
2022/12/03 07:19:47;;;;;;;;;;;;;;;9.65;67.77;99899.63;5054425;28;20304;-74
2022/12/03 07:22:13;;;;;;;;;;;;;;;9.65;66.93;99910.03;5036550;28;19917;-72
2022/12/03 07:24:38;;;;;;;;;;;;;;;9.64;66.70;99908.34;5053250;28;19917;-73
2022/12/03 07:27:03;;;;;;;;;;;;;;;9.64;66.59;99910.97;5032486;28;19920;-72
2022/12/03 07:29:28;;;;;;;;;;;;;;;9.62;66.23;99910.22;5053575;28;19940;-73
2022/12/03 07:31:54;;;;;;;;;;;;;;;9.61;65.89;99914.56;5052461;28;19959;-72
2022/12/03 07:34:19;;;;;;;;;;;;;;;9.62;65.71;99913.66;5069439;28;19956;-73
2022/12/03 07:36:44;;;;;;;;;;;;;;;9.62;65.49;99918.84;5069775;28;19923;-73
2022/12/03 07:39:09;;;;;;;;;;;;;;;9.62;65.39;99923.25;5054313;28;19921;-72
2022/12/03 07:41:35;;;;;;;;;;;;;;;9.62;65.13;99915.41;5054163;28;19920;-72
2022/12/03 07:44:00;;;;;;;;;;;;;;;9.62;65.05;99921.47;5054521;28;19917;-72
2022/12/03 07:46:25;;;;;;;;;;;;;;;9.61;64.82;99914.56;5069534;28;19927;-72
2022/12/03 07:48:51;;;;;;;;;;;;;;;9.62;64.43;99916.25;5019414;28;19917;-71
2022/12/03 07:51:16;;;;;;;;;;;;;;;9.63;64.48;99914.47;5052832;28;19917;-70
2022/12/03 07:53:41;;;;;;;;;;;;;;;9.64;64.15;99916.16;5052313;28;19916;-71
2022/12/03 07:56:07;;;;;;;;;;;;;;;9.65;64.04;99916.09;5053668;28;19917;-71
2022/12/03 07:58:32;;;;;;;;;;;;;;;9.69;63.95;99916.75;5068759;28;19920;-73
2022/12/03 08:00:57;;;;;;;;;;;;;;;9.71;63.54;99909.69;5036350;28;20311;-73
2022/12/03 08:03:23;;;;;;;;;;;;;;;9.79;63.53;99912.75;5036307;28;19917;-75
2022/12/03 08:05:48;;;;;;;;;;;;;;;9.86;63.21;99919.28;5053422;28;19917;-74
2022/12/03 08:08:13;;;;;;;;;;;;;;;9.91;63.21;99911.22;5036140;28;19963;-74
2022/12/03 08:10:39;;;;;;;;;;;;;;;9.95;62.93;99912.75;5035537;28;19987;-72
2022/12/03 08:13:05;;;;;;;;;;;;;;;9.99;62.70;99909.03;5068671;28;19916;-73
2022/12/03 08:15:31;;;;;;;;;;;;;;;10.00;62.69;99913.31;5053521;28;20295;-72
2022/12/03 08:18:00;;;;;;;;;;;;;;;10.02;62.50;99919.28;5035875;28;19947;-71
2022/12/03 08:20:30;;;;;;;;;;;;;;;10.03;62.30;99917.53;5053081;28;19927;-68
2022/12/03 08:22:55;;;;;;;;;;;;;;;10.04;62.36;99917.47;5052328;28;19917;-70
2022/12/03 08:25:27;;;;;;;;;;;;;;;10.03;62.11;99915.78;5052258;28;19999;-70
2022/12/03 08:27:55;;;;;;;;;;;;;;;10.01;62.15;99912.41;5025087;28;19917;-71
2022/12/03 08:30:21;;;;;;;;;;;;;;;10.02;62.34;99918.47;5068599;28;20295;-70
2022/12/03 08:32:46;;;;;;;;;;;;;;;10.04;62.18;99916.59;5035634;28;19916;-70
2022/12/03 08:35:22;;;;;;;;;;;;;;;10.02;62.26;99916.69;5035555;28;19959;-71
2022/12/03 08:37:49;;;;;;;;;;;;;;;10.02;61.99;99914.06;5051889;28;19917;-70
2022/12/03 08:40:18;;;;;;;;;;;;;;;10.03;61.88;99920.97;5035359;28;19921;-71
2022/12/03 08:42:43;;;;;;;;;;;;;;;10.05;61.93;99916.50;5034648;28;20387;-71
2022/12/03 08:45:16;;;;;;;;;;;;;;;10.06;61.83;99913.00;5068620;28;19924;-69
2022/12/03 08:47:41;;;;;;;;;;;;;;;10.13;61.81;99913.50;5068180;28;19924;-71
2022/12/03 08:50:24;;;;;;;;;;;;;;;10.19;61.46;99910.53;5035239;28;20318;-72
2022/12/03 08:52:49;;;;;;;;;;;;;;;10.25;61.18;99909.38;5035285;28;20297;-69
2022/12/03 08:55:35;;;;;;;;;;;;;;;10.28;61.26;99914.41;5035439;28;20064;-71
2022/12/03 08:58:03;;;;;;;;;;;;;;;10.31;61.16;99909.03;5067022;28;19920;-71
2022/12/03 09:00:29;;;;;;;;;;;;;;;10.34;61.10;99911.47;5034581;28;19920;-71
2022/12/03 09:02:54;;;;;;;;;;;;;;;10.35;60.98;99910.53;5034864;28;20022;-72
2022/12/03 09:05:21;;;;;;;;;;;;;;;10.39;60.74;99914.69;5051645;28;20305;-69
2022/12/03 09:07:46;;;;;;;;;;;;;;;10.41;60.81;99915.41;5034763;28;19925;-71
2022/12/03 09:10:11;;;;;;;;;;;;;;;10.42;60.75;99914.50;5067507;28;19916;-70
2022/12/03 09:12:37;;;;;;;;;;;;;;;10.47;60.52;99914.25;5052170;28;19924;-72
2022/12/03 09:15:02;;;;;;;;;;;;;;;10.52;60.50;99913.97;5034853;28;20358;-72
2022/12/03 09:17:28;;;;;;;;;;;;;;;10.54;60.33;99905.13;5034414;28;19916;-74
2022/12/03 09:19:53;;;;;;;;;;;;;;;10.57;60.17;99909.34;5067569;28;20351;-71
2022/12/03 09:22:19;;;;;;;;;;;;;;;10.59;59.78;99910.91;5033876;28;19920;-70
2022/12/03 09:24:44;;;;;;;;;;;;;;;10.60;59.78;99910.00;5052487;28;19974;-70
2022/12/03 09:27:09;;;;;;;;;;;;;;;10.62;59.75;99909.91;5034276;28;19920;-69
2022/12/03 09:29:34;;;;;;;;;;;;;;;10.60;59.86;99912.59;5052363;28;20011;-69
2022/12/03 09:32:00;;;;;;;;;;;;;;;10.60;59.88;99902.16;5034388;28;19923;-70
2022/12/03 09:34:25;;;;;;;;;;;;;;;10.59;59.89;99904.84;5017626;28;19921;-70
2022/12/03 09:36:50;;;;;;;;;;;;;;;10.60;59.62;99907.38;5052155;28;19917;-69
2022/12/03 09:39:16;;;;;;;;;;;;;;;10.63;59.58;99903.75;5033991;28;19924;-71
2022/12/03 09:41:41;;;;;;;;;;;;;;;10.62;59.42;99900.28;5017605;28;20334;-71
2022/12/03 09:44:06;;;;;;;;;;;;;;;10.66;59.37;99898.34;5033860;28;20383;-69
2022/12/03 09:46:33;;;;;;;;;;;;;;;10.68;59.33;99899.09;5033971;28;19924;-73
2022/12/03 09:48:59;;;;;;;;;;;;;;;10.69;59.45;99895.56;5034230;28;19927;-70
2022/12/03 09:51:24;;;;;;;;;;;;;;;10.72;59.38;99891.91;5052046;28;19995;-70
2022/12/03 09:53:50;;;;;;;;;;;;;;;10.76;59.42;99894.25;5034365;28;19924;-71
2022/12/03 09:56:17;;;;;;;;;;;;;;;10.82;59.24;99885.25;5034085;28;20010;-70
2022/12/03 09:58:43;;;;;;;;;;;;;;;10.85;58.91;99883.28;5033810;28;20391;-69
2022/12/03 10:01:10;;;;;;;;;;;;;;;10.94;58.75;99881.91;5017349;28;19964;-70
2022/12/03 10:03:41;;;;;;;;;;;;;;;10.98;58.63;99875.56;5034212;28;19939;-74
2022/12/03 10:06:08;;;;;;;;;;;;;;;11.07;58.74;99876.78;5034131;28;19917;-72
2022/12/03 10:08:33;;;;;;;;;;;;;;;11.19;58.25;99869.97;5017108;28;19917;-73
2022/12/03 10:10:59;;;;;;;;;;;;;;;11.24;58.42;99862.69;5033521;28;19917;-70
2022/12/03 10:13:27;;;;;;;;;;;;;;;11.31;58.18;99863.16;5051786;28;20284;-70
2022/12/03 10:15:53;;;;;;;;;;;;;;;11.39;57.74;99860.91;5016999;28;19971;-71
2022/12/03 10:18:19;;;;;;;;;;;;;;;11.45;57.42;99855.31;5034389;28;19916;-72
2022/12/03 10:20:44;;;;;;;;;;;;;;;11.52;57.59;99853.97;5017337;28;19971;-72
2022/12/03 10:23:17;;;;;;;;;;;;;;;11.61;57.04;99860.41;5033471;28;19921;-72
2022/12/03 10:25:49;;;;;;;;;;;;;;;11.65;57.11;99850.59;5034184;28;20019;-70
2022/12/03 10:28:21;;;;;;;;;;;;;;;11.66;56.86;99852.28;5033347;28;19964;-70
2022/12/03 10:30:54;;;;;;;;;;;;;;;11.66;57.06;99853.13;5033942;28;20388;-71
2022/12/03 10:33:19;;;;;;;;;;;;;;;11.67;57.33;99849.56;5016922;28;19959;-70
2022/12/03 10:35:44;;;;;;;;;;;;;;;11.68;56.87;99856.47;5020907;28;19964;-70
2022/12/03 10:38:16;;;;;;;;;;;;;;;11.70;56.81;99849.38;5050212;28;19957;-70
2022/12/03 10:40:41;;;;;;;;;;;;;;;11.71;56.93;99850.22;5051514;28;20007;-69
2022/12/03 10:43:20;;;;;;;;;;;;;;;11.73;56.90;99845.72;5050063;28;20459;-72
2022/12/03 10:45:46;;;;;;;;;;;;;;;11.73;57.35;99846.56;5051716;28;19917;-71
2022/12/03 10:48:12;;;;;;;;;;;;;;;11.82;61.05;99847.75;5044508;28;20308;-70
2022/12/03 10:50:45;;;;;;;;;;;;;;;11.85;59.89;99849.34;5016891;28;19917;-71
2022/12/03 10:53:10;;;;;;;;;;;;;;;11.84;58.84;99843.25;5033323;28;20383;-71
2022/12/03 10:55:36;;;;;;;;;;;;;;;11.85;58.79;99837.09;5033260;28;19927;-73
2022/12/03 10:58:02;;;;;;;;;;;;;;;11.85;58.29;99842.31;5016969;28;19928;-70
2022/12/03 11:00:27;;;;;;;;;;;;;;;11.83;58.19;99836.34;5051339;28;19921;-70
2022/12/03 11:02:52;;;;;;;;;;;;;;;11.83;58.28;99844.22;5033551;28;19917;-71
2022/12/03 11:05:19;;;;;;;;;;;;;;;11.91;65.00;99833.25;5038913;28;19940;-71
2022/12/03 11:07:44;;;;;;;;;;;;;;;12.01;63.78;99830.91;5036813;28;19939;-71
2022/12/03 11:10:13;;;;;;;;;;;;;;;12.09;65.72;99829.47;5055331;28;20363;-73
2022/12/03 11:12:38;;;;;;;;;;;;;;;12.12;64.18;99834.50;5036813;28;20024;-72
2022/12/03 11:15:07;;;;;;;;;;;;;;;12.11;61.97;99824.13;5037045;28;20395;-70
2022/12/03 11:17:46;;;;;;;;;;;;;;;12.09;60.78;99828.63;5053703;28;19939;-70
2022/12/03 11:20:23;;;;;;;;;;;;;;;12.06;60.39;99834.88;5052522;28;20407;-71
2022/12/03 11:22:49;;;;;;;;;;;;;;;12.02;59.65;99827.34;5053367;28;20010;-71
2022/12/03 11:25:20;;;;;;;;;;;;;;;12.04;64.20;99828.94;5053916;28;19952;-69
2022/12/03 11:28:00;;;;;;;;;;;;;;;12.25;69.35;99831.06;5043523;28;19927;-71
2022/12/03 11:30:55;;;;;;;;;;;;;;;12.48;69.18;99833.00;5036853;28;19974;-72
2022/12/03 11:33:39;;;;;;;;;;;;;;;12.52;67.27;99830.19;5053031;28;19927;-71
2022/12/03 11:36:04;;;;;;;;;;;;;;;12.58;67.38;99832.41;5054354;28;19924;-72
2022/12/03 11:38:36;;;;;;;;;;;;;;;12.71;67.45;99830.63;5069617;28;19916;-69
2022/12/03 11:41:07;;;;;;;;;;;;;;;12.72;65.18;99836.72;5054316;28;20062;-69
2022/12/03 11:43:51;;;;;;;;;;;;;;;12.67;63.27;99829.16;5069826;28;19921;-71
2022/12/03 11:46:23;;;;;;;;;;;;;;;12.64;62.16;99829.38;5069066;28;20062;-74
2022/12/03 11:48:49;;;;;;;;;;;;;;;12.60;61.75;99826.13;5036444;28;19917;-73
2022/12/03 11:51:14;;;;;;;;;;;;;;;12.54;61.46;99828.28;5036107;28;19928;-73
2022/12/03 11:53:40;;;;;;;;;;;;;;;12.48;61.07;99827.78;5036210;28;19923;-72
2022/12/03 11:56:07;;;;;;;;;;;;;;;12.41;60.58;99826.53;5036067;28;19974;-72
2022/12/03 11:58:33;;;;;;;;;;;;;;;12.35;60.95;99824.31;5036102;28;19920;-73
2022/12/03 12:00:59;;;;;;;;;;;;;;;12.28;60.77;99823.84;5054071;28;20023;-71
2022/12/03 12:03:28;;;;;;;;;;;;;;;12.21;60.43;99824.38;5053618;28;20379;-75
2022/12/03 12:06:01;;;;;;;;;;;;;;;12.15;60.52;99833.47;5036017;28;19921;-73
2022/12/03 12:08:26;;;;;;;;;;;;;;;12.09;60.85;99824.22;5053219;28;19927;-73
2022/12/03 12:10:51;;;;;;;;;;;;;;;12.03;60.59;99835.09;5054336;28;20015;-72
2022/12/03 12:13:29;;;;;;;;;;;;;;;11.98;60.63;99834.56;5052280;28;20392;-71
2022/12/03 12:15:54;;;;;;;;;;;;;;;11.92;60.55;99834.94;5069144;28;19917;-73
2022/12/03 12:18:33;;;;;;;;;;;;;;;11.85;60.79;99836.25;5050846;28;20019;-71
2022/12/03 12:21:17;;;;;;;;;;;;;;;11.80;60.86;99835.69;5052214;28;19979;-71
2022/12/03 12:23:42;;;;;;;;;;;;;;;11.73;60.63;99828.25;5053481;28;19921;-70
2022/12/03 12:26:08;;;;;;;;;;;;;;;11.69;61.20;99841.63;5035778;28;19924;-69
2022/12/03 12:28:33;;;;;;;;;;;;;;;11.63;60.78;99837.63;5052586;28;19916;-70
2022/12/03 12:30:59;;;;;;;;;;;;;;;11.56;61.08;99831.94;5035786;28;19917;-69
2022/12/03 12:33:25;;;;;;;;;;;;;;;11.52;61.01;99832.22;5052952;28;20383;-69
2022/12/03 12:35:50;;;;;;;;;;;;;;;11.46;61.00;99840.44;5053463;28;19974;-69
2022/12/03 12:38:16;;;;;;;;;;;;;;;11.41;61.25;99836.34;5035190;28;20319;-69
2022/12/03 12:40:43;;;;;;;;;;;;;;;11.35;61.33;99828.03;5035661;28;19917;-73
2022/12/03 12:43:09;;;;;;;;;;;;;;;11.28;61.44;99840.66;5052714;28;19928;-71
2022/12/03 12:45:34;;;;;;;;;;;;;;;11.22;61.53;99841.03;5053092;28;19917;-71
2022/12/03 12:48:03;;;;;;;;;;;;;;;11.16;61.70;99839.63;5035353;28;19940;-72
2022/12/03 12:50:28;;;;;;;;;;;;;;;11.12;61.67;99838.16;5052947;28;20016;-72
2022/12/03 12:52:57;;;;;;;;;;;;;;;11.10;61.50;99844.38;5018738;28;20451;-72
2022/12/03 12:55:22;;;;;;;;;;;;;;;11.04;61.60;99838.59;5035191;28;19924;-72
2022/12/03 12:57:48;;;;;;;;;;;;;;;11.00;61.61;99839.72;5052927;28;19917;-73
2022/12/03 13:00:17;;;;;;;;;;;;;;;10.95;61.57;99839.16;5034869;28;20023;-72
2022/12/03 13:02:49;;;;;;;;;;;;;;;10.93;61.66;99845.44;5035892;28;19940;-73
2022/12/03 13:05:14;;;;;;;;;;;;;;;10.86;61.72;99840.56;5034872;28;20015;-72
2022/12/03 13:07:40;;;;;;;;;;;;;;;10.86;61.76;99842.31;5035006;28;20428;-71